Time;durP1;ratioP1;P1;durP2;ratioP2;P2;SDS_P1;SDS_P2;PMS_P1;PMS_P2;Temp;Humidity;BMP_temperature;BMP_pressure;BME280_temperature;BME280_humidity;BME280_pressure;Samples;Min_cycle;Max_cycle;Signal;HPM_P1;HPM_P2
2022/04/14 00:01:47;;;;;;;10.95;6.97;;;;;;;10.31;55.04;100382.69;6156141;23;20100;-81
2022/04/14 00:04:13;;;;;;;11.10;6.80;;;;;;;10.18;55.43;100374.22;6156542;23;20009;-81
2022/04/14 00:06:39;;;;;;;9.20;6.60;;;;;;;10.20;55.28;100377.31;6156955;23;20013;-80
2022/04/14 00:09:04;;;;;;;11.57;6.97;;;;;;;10.19;55.94;100378.53;6156512;23;20013;-80
2022/04/14 00:11:30;;;;;;;11.30;7.00;;;;;;;10.16;56.95;100384.94;6182386;23;19997;-80
2022/04/14 00:13:56;;;;;;;10.63;7.10;;;;;;;10.16;57.64;100382.16;6156356;23;20020;-80
2022/04/14 00:16:21;;;;;;;8.57;6.65;;;;;;;10.14;57.76;100370.69;6155657;23;20502;-81
2022/04/14 00:18:47;;;;;;;10.55;7.57;;;;;;;10.06;58.22;100366.50;6182110;23;20013;-80
2022/04/14 00:21:12;;;;;;;11.20;7.43;;;;;;;10.00;58.92;100359.88;6182118;23;20423;-80
2022/04/14 00:23:38;;;;;;;10.65;7.65;;;;;;;10.00;60.19;100357.09;6182939;23;20020;-80
2022/04/14 00:26:03;;;;;;;11.18;7.88;;;;;;;9.95;59.66;100354.81;6156860;23;20017;-80
2022/04/14 00:28:29;;;;;;;11.75;7.18;;;;;;;10.01;60.00;100383.63;6155842;23;20463;-80
2022/04/14 00:30:55;;;;;;;8.27;6.80;;;;;;;10.04;60.28;100377.22;6156892;23;20009;-80
2022/04/14 00:33:20;;;;;;;9.18;6.47;;;;;;;10.04;60.02;100374.44;6182503;23;20013;-81
2022/04/14 00:35:46;;;;;;;9.18;6.60;;;;;;;10.03;59.54;100363.81;6156448;23;20012;-81
2022/04/14 00:38:11;;;;;;;10.95;7.75;;;;;;;9.97;59.83;100363.50;6182234;23;20036;-81
2022/04/14 00:40:36;;;;;;;11.45;7.18;;;;;;;9.90;60.27;100358.09;6182819;23;20009;-81
2022/04/14 00:43:02;;;;;;;10.73;7.43;;;;;;;9.87;60.70;100358.19;6182636;23;20079;-81
2022/04/14 00:45:28;;;;;;;10.85;7.30;;;;;;;9.88;60.93;100360.50;6182700;23;20067;-81
2022/04/14 00:47:53;;;;;;;8.68;7.50;;;;;;;9.92;61.85;100371.50;6156265;23;20001;-81
2022/04/14 00:50:19;;;;;;;10.35;7.85;;;;;;;9.86;61.27;100357.38;6182059;23;20070;-81
2022/04/14 00:52:46;;;;;;;13.05;7.60;;;;;;;9.85;61.44;100369.66;6156045;23;20463;-81
2022/04/14 00:55:13;;;;;;;8.82;6.80;;;;;;;9.80;61.25;100367.38;6156278;23;20016;-80
2022/04/14 00:57:38;;;;;;;8.80;6.95;;;;;;;9.66;61.34;100362.91;6155029;23;20084;-81
2022/04/14 01:00:05;;;;;;;8.50;6.85;;;;;;;9.63;61.20;100358.19;6156101;23;20395;-81
2022/04/14 01:02:31;;;;;;;12.38;7.03;;;;;;;9.57;60.67;100359.09;6129844;23;20017;-93
2022/04/14 01:04:57;;;;;;;10.05;6.70;;;;;;;9.70;58.85;100368.38;6104073;23;20016;-93
2022/04/14 01:07:23;;;;;;;9.13;6.05;;;;;;;9.67;58.92;100364.44;6125830;23;19998;-94
2022/04/14 01:09:49;;;;;;;8.35;6.32;;;;;;;9.52;58.63;100346.50;6132121;23;20005;-92
2022/04/14 01:12:15;;;;;;;8.43;6.13;;;;;;;9.60;57.73;100355.47;6131266;23;20017;-93
2022/04/14 01:14:40;;;;;;;9.48;6.07;;;;;;;9.66;57.20;100353.81;6129224;23;20024;-93
2022/04/14 01:17:08;;;;;;;8.93;5.80;;;;;;;9.76;56.88;100378.53;6122746;23;20032;-94
2022/04/14 01:19:34;;;;;;;9.45;6.10;;;;;;;9.64;57.18;100356.97;6121103;23;19997;-92
2022/04/14 01:22:04;;;;;;;10.38;6.90;;;;;;;9.65;57.04;100350.25;6129576;23;20017;-93
2022/04/14 01:24:30;;;;;;;8.05;6.22;;;;;;;9.63;57.21;100357.38;6144676;23;20018;-92
2022/04/14 01:26:56;;;;;;;10.00;6.07;;;;;;;9.69;57.16;100372.34;6117347;23;20021;-93
2022/04/14 01:29:23;;;;;;;9.95;6.07;;;;;;;9.69;56.61;100369.56;6116041;23;20482;-94
2022/04/14 01:31:50;;;;;;;9.70;5.75;;;;;;;9.57;57.15;100353.56;6115601;23;20021;-93
2022/04/14 01:34:16;;;;;;;7.50;5.85;;;;;;;9.62;57.31;100378.00;6114986;23;20012;-93
2022/04/14 01:36:41;;;;;;;7.07;5.88;;;;;;;9.42;58.81;100346.72;6114675;23;20045;-93
2022/04/14 01:39:11;;;;;;;13.23;6.60;;;;;;;9.56;58.38;100379.69;6132996;23;20013;-94
2022/04/14 01:41:44;;;;;;;10.32;6.53;;;;;;;9.33;59.41;100345.25;6122158;23;20104;-93
2022/04/14 01:44:11;;;;;;;8.98;6.63;;;;;;;9.29;59.99;100354.81;6115676;23;20097;-93
2022/04/14 01:46:37;;;;;;;8.95;6.80;;;;;;;9.32;60.99;100365.84;6116830;23;20101;-92
2022/04/14 01:49:04;;;;;;;10.13;6.90;;;;;;;9.30;62.05;100373.75;6114888;23;20021;-92
2022/04/14 01:51:33;;;;;;;11.90;7.50;;;;;;;9.32;62.72;100376.91;6112375;23;20033;-92
2022/04/14 01:53:59;;;;;;;12.35;7.28;;;;;;;9.11;62.16;100352.34;6112314;23;20045;-94
2022/04/14 01:56:24;;;;;;;11.50;6.70;;;;;;;9.09;62.52;100368.59;6119440;23;19997;-95
2022/04/14 01:58:52;;;;;;;12.05;7.45;;;;;;;9.02;63.89;100352.06;6117302;23;20033;-92
2022/04/14 02:01:19;;;;;;;10.43;7.45;;;;;;;8.85;66.29;100350.38;6131826;23;20009;-95
2022/04/14 02:03:45;;;;;;;8.70;6.70;;;;;;;8.83;65.42;100345.25;6131162;23;20036;-94
2022/04/14 02:06:12;;;;;;;9.32;6.93;;;;;;;8.71;64.96;100345.03;6157066;23;20061;-96
2022/04/14 02:08:38;;;;;;;9.30;7.03;;;;;;;8.90;64.12;100372.03;6129252;23;20017;-95
2022/04/14 02:11:04;;;;;;;9.05;6.57;;;;;;;8.74;64.65;100355.25;6157867;23;20098;-95
2022/04/14 02:13:30;;;;;;;10.95;7.15;;;;;;;8.65;63.62;100347.50;6131930;23;20013;-95
2022/04/14 02:15:56;;;;;;;8.65;6.78;;;;;;;8.79;64.27;100366.66;6131367;23;20073;-92
2022/04/14 02:18:22;;;;;;;9.30;6.60;;;;;;;8.88;64.61;100391.03;6115371;23;20052;-94
2022/04/14 02:20:48;;;;;;;9.38;6.90;;;;;;;8.77;64.08;100365.50;6133132;23;20060;-94
2022/04/14 02:23:13;;;;;;;8.95;6.75;;;;;;;8.75;63.81;100370.66;6133370;23;20037;-95
2022/04/14 02:25:39;;;;;;;10.35;6.93;;;;;;;8.72;63.60;100371.50;6133177;23;20042;-95
2022/04/14 02:28:05;;;;;;;8.23;6.40;;;;;;;8.68;63.59;100376.28;6132727;23;20002;-95
2022/04/14 02:30:32;;;;;;;9.40;6.90;;;;;;;8.45;63.03;100352.13;6156816;23;20001;-96
2022/04/14 02:32:58;;;;;;;7.78;6.47;;;;;;;8.68;62.89;100381.81;6133203;23;20045;-95
2022/04/14 02:35:24;;;;;;;10.40;7.25;;;;;;;8.54;63.98;100376.47;6133329;23;20025;-95
2022/04/14 02:37:50;;;;;;;9.90;7.38;;;;;;;8.48;63.13;100369.84;6157691;23;20025;-94
2022/04/14 02:40:15;;;;;;;11.65;7.50;;;;;;;8.62;62.57;100387.03;6133640;23;20377;-95
2022/04/14 02:42:41;;;;;;;9.38;6.78;;;;;;;8.52;62.82;100373.34;6132877;23;20028;-94
2022/04/14 02:45:08;;;;;;;11.05;7.13;;;;;;;8.58;64.53;100377.22;6157283;23;20020;-95
2022/04/14 02:47:35;;;;;;;9.20;7.65;;;;;;;8.32;65.44;100335.31;6132586;23;20068;-94
2022/04/14 02:50:02;;;;;;;10.45;7.55;;;;;;;8.66;67.02;100389.75;6132009;23;20013;-95
2022/04/14 02:52:27;;;;;;;12.35;8.10;;;;;;;8.52;67.72;100365.84;6132510;23;20013;-94
2022/04/14 02:54:53;;;;;;;10.77;8.30;;;;;;;8.36;70.27;100349.84;6131551;23;20017;-95
2022/04/14 02:57:19;;;;;;;11.27;7.85;;;;;;;8.42;69.49;100359.25;6126972;23;20062;-93
2022/04/14 02:59:45;;;;;;;12.15;8.65;;;;;;;8.36;70.10;100360.91;6117608;23;20005;-93
2022/04/14 03:02:11;;;;;;;9.68;7.65;;;;;;;8.43;70.85;100384.91;6115815;23;20041;-93
2022/04/14 03:04:37;;;;;;;9.70;7.50;;;;;;;8.37;70.09;100379.03;6116046;23;20057;-93
2022/04/14 03:07:03;;;;;;;8.80;7.55;;;;;;;8.31;70.78;100383.47;6140670;23;20443;-93
2022/04/14 03:09:29;;;;;;;10.57;7.43;;;;;;;8.21;70.96;100376.06;6116778;23;20478;-92
2022/04/14 03:11:55;;;;;;;8.70;7.20;;;;;;;8.14;71.07;100369.81;6140578;23;20014;-94
2022/04/14 03:14:21;;;;;;;10.32;7.60;;;;;;;8.04;71.52;100371.53;6121480;23;20017;-95
2022/04/14 03:16:46;;;;;;;8.60;7.28;;;;;;;7.81;71.21;100346.50;6123382;23;20013;-92
2022/04/14 03:19:12;;;;;;;10.20;7.70;;;;;;;8.03;71.21;100391.28;6116353;23;20024;-93
2022/04/14 03:21:38;;;;;;;9.82;7.13;;;;;;;7.75;72.55;100373.03;6115716;23;20014;-92
2022/04/14 03:24:06;;;;;;;9.23;7.55;;;;;;;7.49;72.66;100353.13;6114128;23;20072;-92
2022/04/14 03:26:32;;;;;;;10.00;7.63;;;;;;;7.67;73.57;100360.47;6139713;23;20010;-92
2022/04/14 03:29:01;;;;;;;10.52;7.63;;;;;;;7.69;73.16;100377.41;6113873;23;20103;-93
2022/04/14 03:31:26;;;;;;;10.68;8.02;;;;;;;7.84;73.74;100392.66;6114999;23;20005;-92
2022/04/14 03:33:52;;;;;;;11.30;8.07;;;;;;;7.61;74.09;100370.38;6137013;23;20043;-92
2022/04/14 03:36:18;;;;;;;9.63;7.93;;;;;;;7.41;74.21;100343.34;6137219;23;20018;-93
2022/04/14 03:38:43;;;;;;;10.77;8.13;;;;;;;7.56;74.61;100359.81;6137778;23;20002;-91
2022/04/14 03:41:09;;;;;;;9.32;7.68;;;;;;;7.48;75.59;100359.09;6138986;23;20109;-92
2022/04/14 03:43:35;;;;;;;11.10;8.40;;;;;;;7.74;76.15;100396.28;6138934;23;20104;-92
2022/04/14 03:46:01;;;;;;;10.07;7.85;;;;;;;7.61;75.64;100381.44;6139652;23;20013;-94
2022/04/14 03:48:27;;;;;;;10.15;7.65;;;;;;;7.50;76.59;100363.00;6139033;23;20317;-94
2022/04/14 03:50:56;;;;;;;10.55;8.30;;;;;;;7.50;76.81;100371.28;6138930;23;20020;-94
2022/04/14 03:53:22;;;;;;;9.75;8.18;;;;;;;7.42;76.75;100369.78;6139605;23;20097;-91
2022/04/14 03:55:47;;;;;;;10.90;8.30;;;;;;;7.54;76.86;100375.97;6153959;23;20018;-94
2022/04/14 03:58:16;;;;;;;9.55;8.02;;;;;;;7.42;78.07;100369.78;6132029;23;20045;-95
2022/04/14 04:00:42;;;;;;;9.35;7.82;;;;;;;7.60;77.00;100401.97;6156288;23;20028;-93
2022/04/14 04:03:09;;;;;;;9.50;7.63;;;;;;;7.34;77.00;100373.78;6129957;23;20025;-94
2022/04/14 04:05:34;;;;;;;9.95;7.97;;;;;;;7.46;76.11;100381.56;6155304;23;20001;-94
2022/04/14 04:08:01;;;;;;;11.40;8.00;;;;;;;7.42;75.14;100382.78;6153239;23;20040;-95
2022/04/14 04:10:27;;;;;;;10.45;8.10;;;;;;;7.43;76.09;100390.66;6130995;23;20014;-92
2022/04/14 04:12:53;;;;;;;10.60;8.52;;;;;;;7.50;76.66;100411.91;6140193;23;20040;-94
2022/04/14 04:15:18;;;;;;;9.50;8.48;;;;;;;7.36;75.82;100401.75;6140586;23;20009;-92
2022/04/14 04:17:46;;;;;;;11.45;9.00;;;;;;;7.32;76.29;100389.19;6116393;23;20380;-94
2022/04/14 04:20:12;;;;;;;11.35;8.75;;;;;;;7.32;76.28;100398.22;6140171;23;20328;-92
2022/04/14 04:22:38;;;;;;;10.38;8.05;;;;;;;7.27;75.40;100390.41;6129697;23;20013;-94
2022/04/14 04:25:05;;;;;;;10.20;8.18;;;;;;;7.16;75.33;100375.88;6130075;23;20372;-94
2022/04/14 04:27:33;;;;;;;9.25;8.02;;;;;;;7.31;74.33;100393.13;6104994;23;20064;-94
2022/04/14 04:29:59;;;;;;;9.90;7.63;;;;;;;7.52;74.60;100417.81;6105308;23;20032;-94
2022/04/14 04:32:25;;;;;;;10.73;7.95;;;;;;;7.43;74.22;100393.44;6129700;23;20455;-95
2022/04/14 04:34:53;;;;;;;9.98;7.90;;;;;;;7.32;74.29;100369.88;6107863;23;20029;-96
2022/04/14 04:37:19;;;;;;;10.75;8.18;;;;;;;7.65;74.36;100426.34;6108136;23;20040;-94
2022/04/14 04:39:51;;;;;;;10.63;8.10;;;;;;;7.47;75.46;100393.41;6111522;23;20005;-96
2022/04/14 04:42:27;;;;;;;10.73;7.35;;;;;;;7.39;74.92;100378.88;6133693;23;20044;-95
2022/04/14 04:45:06;;;;;;;9.15;7.22;;;;;;;7.75;72.95;100431.78;6133822;23;20009;-92
2022/04/14 04:47:34;;;;;;;10.00;7.78;;;;;;;7.70;72.17;100401.84;6107651;23;20040;-93
2022/04/14 04:50:00;;;;;;;10.98;7.30;;;;;;;7.67;71.06;100401.88;6105809;23;20408;-92
2022/04/14 04:52:26;;;;;;;10.40;7.82;;;;;;;7.70;69.00;100390.81;6106770;23;20017;-94
2022/04/14 04:54:52;;;;;;;8.93;7.13;;;;;;;7.86;66.41;100398.53;6129295;23;20029;-93
2022/04/14 04:57:20;;;;;;;8.43;6.95;;;;;;;8.14;65.55;100425.88;6104430;23;20025;-94
2022/04/14 04:59:46;;;;;;;9.73;6.70;;;;;;;7.98;64.14;100389.75;6105607;23;20013;-95
2022/04/14 05:02:12;;;;;;;9.25;6.90;;;;;;;8.36;63.03;100432.78;6129092;23;20063;-94
2022/04/14 05:04:38;;;;;;;11.85;7.28;;;;;;;8.55;63.42;100441.63;6129684;23;20041;-91
2022/04/14 05:07:04;;;;;;;10.38;7.20;;;;;;;8.65;63.59;100446.28;6128958;23;20061;-95
2022/04/14 05:09:29;;;;;;;8.15;6.63;;;;;;;8.49;64.48;100410.13;6108006;23;20037;-94
2022/04/14 05:11:55;;;;;;;11.38;7.50;;;;;;;8.76;64.41;100450.47;6104106;23;20440;-92
2022/04/14 05:14:20;;;;;;;11.30;7.20;;;;;;;8.62;63.90;100422.19;6104015;23;20037;-94
2022/04/14 05:16:46;;;;;;;8.48;7.18;;;;;;;8.69;64.14;100430.41;6127525;23;20444;-93
2022/04/14 05:19:13;;;;;;;9.73;7.25;;;;;;;8.60;64.57;100419.06;6113675;23;20391;-93
2022/04/14 05:21:39;;;;;;;10.60;7.72;;;;;;;8.67;64.79;100430.03;6107676;23;20024;-94
2022/04/14 05:24:05;;;;;;;10.95;6.95;;;;;;;8.73;65.00;100422.84;6127445;23;20108;-94
2022/04/14 05:26:30;;;;;;;10.38;7.20;;;;;;;8.86;64.94;100448.75;6103407;23;20033;-93
2022/04/14 05:28:56;;;;;;;12.00;8.25;;;;;;;8.79;65.42;100424.72;6127803;23;20001;-94
2022/04/14 05:31:22;;;;;;;10.75;7.15;;;;;;;8.83;65.21;100430.22;6103874;23;20013;-95
2022/04/14 05:33:48;;;;;;;13.35;7.18;;;;;;;8.95;65.15;100426.09;6103114;23;20465;-94
2022/04/14 05:36:14;;;;;;;12.63;8.15;;;;;;;8.85;65.24;100423.09;6131037;23;20032;-94
2022/04/14 05:38:43;;;;;;;11.07;8.32;;;;;;;8.85;64.83;100403.72;6130349;23;20014;-96
2022/04/14 05:41:12;;;;;;;13.43;8.30;;;;;;;8.99;64.49;100424.06;6110884;23;20001;-94
2022/04/14 05:44:05;;;;;;;11.85;8.10;;;;;;;9.33;63.84;100450.47;6118067;23;20010;-95
2022/04/14 05:46:38;;;;;;;11.75;8.65;;;;;;;9.54;62.04;100463.19;6135895;23;20321;-96
2022/04/14 05:49:04;;;;;;;10.40;7.70;;;;;;;9.38;61.12;100407.69;6129483;23;20020;-96
2022/04/14 05:51:30;;;;;;;11.10;8.00;;;;;;;9.57;60.04;100415.28;6110116;23;20009;-96
2022/04/14 05:53:58;;;;;;;10.57;7.85;;;;;;;9.64;59.79;100419.91;6112371;23;20021;-95
2022/04/14 05:56:27;;;;;;;10.13;7.78;;;;;;;9.68;59.24;100410.34;6116753;23;20014;-95
2022/04/14 05:58:56;;;;;;;10.63;7.85;;;;;;;9.82;59.15;100398.22;6116055;23;20009;-96
2022/04/14 06:01:22;;;;;;;12.60;8.25;;;;;;;10.01;58.90;100427.19;6110247;23;20017;-96
2022/04/14 06:03:47;;;;;;;11.27;7.72;;;;;;;10.10;59.77;100419.88;6132316;23;20006;-96
2022/04/14 06:06:13;;;;;;;12.13;8.45;;;;;;;10.26;60.43;100411.69;6113499;23;20013;-86
2022/04/14 06:08:39;;;;;;;13.43;8.23;;;;;;;10.64;60.95;100433.50;6152409;23;20107;-86
2022/04/14 06:11:06;;;;;;;13.52;8.60;;;;;;;10.83;61.41;100429.94;6153549;23;20035;-85
2022/04/14 06:13:33;;;;;;;10.50;8.10;;;;;;;10.98;61.54;100420.06;6153715;23;20029;-86
2022/04/14 06:15:58;;;;;;;9.55;8.02;;;;;;;11.19;61.33;100422.38;6126975;23;20077;-86
2022/04/14 06:18:24;;;;;;;12.65;8.25;;;;;;;11.41;60.80;100421.84;6153796;23;20075;-86
2022/04/14 06:20:50;;;;;;;9.05;7.35;;;;;;;11.53;59.54;100429.50;6154045;23;20013;-86
2022/04/14 06:23:19;;;;;;;9.23;7.45;;;;;;;11.67;58.69;100418.06;6151607;23;20053;-86
2022/04/14 06:25:49;;;;;;;11.60;7.15;;;;;;;11.90;58.39;100422.66;6152440;23;20021;-86
2022/04/14 06:28:16;;;;;;;11.25;7.32;;;;;;;12.07;57.03;100418.63;6127550;23;20033;-86
2022/04/14 06:30:42;;;;;;;10.40;6.97;;;;;;;12.18;52.18;100418.31;6151045;23;20021;-87
2022/04/14 06:33:07;;;;;;;11.18;7.45;;;;;;;12.12;51.65;100404.97;6148238;23;20009;-85
2022/04/14 06:35:33;;;;;;;11.55;7.15;;;;;;;12.45;49.90;100421.56;6150538;23;20108;-86
2022/04/14 06:37:59;;;;;;;11.35;6.93;;;;;;;12.48;46.66;100426.25;6148203;23;20021;-83
2022/04/14 06:40:24;;;;;;;9.60;6.65;;;;;;;12.34;47.11;100421.06;6124085;23;20025;-84
2022/04/14 06:42:50;;;;;;;8.73;6.88;;;;;;;12.39;47.04;100423.31;6149059;23;20017;-86
2022/04/14 06:45:16;;;;;;;11.20;7.50;;;;;;;12.50;45.33;100419.00;6149436;23;20434;-86
2022/04/14 06:47:42;;;;;;;9.75;7.05;;;;;;;12.72;45.70;100421.97;6098771;23;20458;-86
2022/04/14 06:50:08;;;;;;;8.38;6.93;;;;;;;12.93;45.38;100426.13;6149694;23;20005;-86
2022/04/14 06:52:34;;;;;;;12.25;6.88;;;;;;;13.05;45.43;100425.34;6122858;23;20048;-86
2022/04/14 06:55:00;;;;;;;9.35;6.97;;;;;;;13.21;43.38;100421.72;6124349;23;20426;-86
2022/04/14 06:57:25;;;;;;;10.70;6.93;;;;;;;13.28;44.17;100416.69;6124355;23;20492;-86
2022/04/14 06:59:51;;;;;;;10.57;7.60;;;;;;;13.35;43.47;100410.88;6122710;23;20021;-86
2022/04/14 07:02:17;;;;;;;11.95;7.10;;;;;;;13.57;43.89;100427.72;6149958;23;20031;-86
2022/04/14 07:04:42;;;;;;;8.88;6.80;;;;;;;13.77;43.38;100427.44;6123881;23;20022;-87
2022/04/14 07:07:08;;;;;;;9.45;7.13;;;;;;;14.00;42.74;100427.81;6111459;23;20046;-87
2022/04/14 07:09:34;;;;;;;9.63;7.18;;;;;;;14.16;41.49;100428.88;6120427;23;20018;-86
2022/04/14 07:12:03;;;;;;;10.48;7.10;;;;;;;13.83;41.88;100418.06;6120091;23;20016;-89
2022/04/14 07:14:29;;;;;;;8.63;6.65;;;;;;;14.05;42.38;100418.09;6093956;23;20054;-88
2022/04/14 07:16:56;;;;;;;10.18;7.60;;;;;;;14.23;41.13;100428.66;6120591;23;20024;-86
2022/04/14 07:19:21;;;;;;;11.98;7.93;;;;;;;14.24;41.43;100424.63;6120583;23;20526;-86
2022/04/14 07:21:47;;;;;;;9.50;6.90;;;;;;;14.46;41.19;100422.66;6094629;23;20009;-85
2022/04/14 07:24:13;;;;;;;9.13;7.22;;;;;;;14.44;40.21;100419.53;6092465;23;20358;-87
2022/04/14 07:26:38;;;;;;;8.55;6.93;;;;;;;14.48;41.25;100429.34;6095862;23;20017;-87
2022/04/14 07:29:05;;;;;;;9.10;6.82;;;;;;;14.72;41.43;100426.09;6071058;23;20030;-87
2022/04/14 07:31:35;;;;;;;9.05;7.03;;;;;;;14.93;40.72;100426.06;6121822;23;19998;-87
2022/04/14 07:34:05;;;;;;;12.05;6.88;;;;;;;15.07;40.47;100429.53;6094642;23;20022;-87
2022/04/14 07:36:30;;;;;;;9.77;6.65;;;;;;;15.29;40.26;100428.25;6118496;23;20041;-87
2022/04/14 07:38:56;;;;;;;10.73;7.43;;;;;;;15.34;39.46;100421.28;6092734;23;20085;-87
2022/04/14 07:41:21;;;;;;;7.93;7.13;;;;;;;14.88;41.04;100429.44;6120554;23;20018;-87
2022/04/14 07:43:47;;;;;;;10.45;7.43;;;;;;;15.14;41.07;100435.63;6093418;23;20013;-87
2022/04/14 07:46:12;;;;;;;11.02;7.50;;;;;;;15.17;40.73;100422.75;6120012;23;20018;-88
2022/04/14 07:48:38;;;;;;;9.43;6.97;;;;;;;15.52;40.20;100435.34;6120801;23;20057;-87
2022/04/14 07:51:04;;;;;;;9.07;7.15;;;;;;;15.80;39.81;100423.00;6121011;23;20446;-88
2022/04/14 07:53:30;;;;;;;9.55;7.35;;;;;;;16.03;39.37;100429.22;6121502;23;20010;-87
2022/04/14 07:55:56;;;;;;;9.05;6.68;;;;;;;16.42;38.50;100425.50;6093952;23;20494;-87
2022/04/14 07:58:21;;;;;;;10.88;7.57;;;;;;;16.46;37.84;100431.72;6120960;23;20014;-87
2022/04/14 08:00:47;;;;;;;9.75;8.23;;;;;;;16.29;38.29;100439.69;6094889;23;20387;-87
2022/04/14 08:03:13;;;;;;;13.10;8.55;;;;;;;16.34;38.16;100435.44;6094585;23;20010;-87
2022/04/14 08:05:39;;;;;;;12.80;7.38;;;;;;;16.40;37.86;100432.81;6095741;23;20010;-87
2022/04/14 08:08:25;;;;;;;10.48;7.35;;;;;;;16.05;37.96;100432.34;6118034;23;20014;-87
2022/04/14 08:10:51;;;;;;;10.07;7.07;;;;;;;16.28;37.14;100426.91;6122946;23;20088;-87
2022/04/14 08:13:17;;;;;;;9.70;7.10;;;;;;;16.65;36.61;100429.72;6149951;23;20482;-87
2022/04/14 08:15:43;;;;;;;9.70;6.97;;;;;;;16.43;35.05;100415.06;6123969;23;20446;-87
2022/04/14 08:18:09;;;;;;;10.70;7.20;;;;;;;16.69;35.64;100433.13;6148901;23;20021;-87
2022/04/14 08:20:39;;;;;;;9.20;7.07;;;;;;;16.60;35.38;100425.53;6123502;23;20074;-87
2022/04/14 08:23:05;;;;;;;9.55;6.85;;;;;;;16.82;35.76;100428.13;6098751;23;20022;-87
2022/04/14 08:25:33;;;;;;;10.85;5.97;;;;;;;17.15;34.14;100433.78;6123907;23;20017;-88
2022/04/14 08:28:00;;;;;;;8.48;6.30;;;;;;;16.81;33.80;100428.59;6122717;23;20013;-87
2022/04/14 08:30:27;;;;;;;7.95;6.15;;;;;;;17.05;32.74;100418.25;6099090;23;20009;-87
2022/04/14 08:32:54;;;;;;;7.60;6.32;;;;;;;17.06;33.49;100431.81;6148717;23;20021;-87
2022/04/14 08:35:20;;;;;;;8.73;5.85;;;;;;;16.87;32.07;100427.47;6149633;23;20017;-87
2022/04/14 08:37:47;;;;;;;8.65;5.40;;;;;;;16.84;32.41;100424.84;6149001;23;20096;-87
2022/04/14 08:40:14;;;;;;;8.25;5.50;;;;;;;16.82;32.82;100421.75;6146305;23;20108;-87
2022/04/14 08:42:51;;;;;;;7.35;4.80;;;;;;;17.07;31.22;100435.34;6120761;23;20014;-87
2022/04/14 08:45:18;;;;;;;7.75;4.90;;;;;;;17.22;31.01;100413.84;6147773;23;20449;-87
2022/04/14 08:47:43;;;;;;;7.32;5.03;;;;;;;17.30;31.85;100417.84;6121969;23;20663;-87
2022/04/14 08:50:11;;;;;;;6.50;4.63;;;;;;;17.69;31.14;100418.75;6122749;23;20017;-87
2022/04/14 08:52:38;;;;;;;6.90;4.70;;;;;;;18.13;31.04;100413.31;6149658;23;20020;-87
2022/04/14 08:55:05;;;;;;;16.05;5.57;;;;;;;18.53;30.05;100396.75;6149605;23;20025;-87
2022/04/14 08:57:32;;;;;;;7.13;5.20;;;;;;;18.77;29.60;100398.69;6124553;23;20006;-87
2022/04/14 08:59:58;;;;;;;8.13;5.53;;;;;;;18.86;29.60;100392.97;6148606;23;20018;-87
2022/04/14 09:02:25;;;;;;;8.50;6.03;;;;;;;18.80;29.67;100403.34;6123410;23;20192;-85
2022/04/14 09:04:50;;;;;;;8.10;5.50;;;;;;;18.98;30.00;100397.53;6123665;23;20088;-85
2022/04/14 09:07:17;;;;;;;8.60;6.07;;;;;;;18.47;29.00;100404.28;6123718;23;20092;-84
2022/04/14 09:09:43;;;;;;;10.25;5.75;;;;;;;18.63;30.20;100398.22;6099608;23;20025;-85
2022/04/14 09:12:10;;;;;;;8.27;6.10;;;;;;;18.61;29.58;100389.50;6149484;23;20005;-84
2022/04/14 09:14:37;;;;;;;9.80;5.60;;;;;;;18.83;30.10;100393.94;6149984;23;20049;-84
2022/04/14 09:17:05;;;;;;;8.10;5.50;;;;;;;18.93;28.37;100395.38;6149715;23;20060;-84
2022/04/14 09:19:35;;;;;;;6.80;5.20;;;;;;;19.04;28.18;100381.53;6148707;23;20462;-85
2022/04/14 09:22:01;;;;;;;9.82;5.15;;;;;;;19.10;28.01;100393.63;6122542;23;20358;-85
2022/04/14 09:24:52;;;;;;;7.00;5.20;;;;;;;19.17;28.55;100384.78;6148698;23;20018;-86
2022/04/14 09:27:31;;;;;;;10.48;5.75;;;;;;;19.32;29.64;100387.59;6149087;23;20021;-86
2022/04/14 09:30:05;;;;;;;8.60;5.53;;;;;;;19.21;28.45;100393.78;6149222;23;20017;-86
2022/04/14 09:32:30;;;;;;;8.65;5.88;;;;;;;19.40;29.04;100383.88;6149413;23;20018;-86
2022/04/14 09:35:00;;;;;;;10.13;5.50;;;;;;;19.71;28.60;100379.72;6149694;23;20024;-85
2022/04/14 09:37:26;;;;;;;6.65;5.28;;;;;;;20.03;28.67;100385.00;6100167;23;20028;-85
2022/04/14 09:40:02;;;;;;;8.18;5.43;;;;;;;20.34;27.23;100381.50;6150634;23;20060;-86
2022/04/14 09:42:30;;;;;;;8.25;5.32;;;;;;;20.35;27.42;100394.34;6126219;23;20079;-86
2022/04/14 09:45:15;;;;;;;7.85;5.60;;;;;;;19.97;27.52;100386.97;6125818;23;20021;-86
2022/04/14 09:47:41;;;;;;;8.35;5.50;;;;;;;20.15;28.33;100387.94;6125979;23;20540;-85
2022/04/14 09:50:24;;;;;;;8.45;5.72;;;;;;;20.05;27.56;100381.69;6152095;23;20005;-87
2022/04/14 09:53:00;;;;;;;7.20;5.03;;;;;;;20.19;28.08;100375.19;6152040;23;20065;-87
2022/04/14 09:55:26;;;;;;;7.38;5.63;;;;;;;19.94;27.72;100376.69;6126761;23;20097;-87
2022/04/14 09:58:10;;;;;;;7.97;5.25;;;;;;;19.91;27.47;100380.50;6125400;23;20116;-84
2022/04/14 10:00:39;;;;;;;8.45;5.43;;;;;;;19.49;26.87;100377.38;6152288;23;20018;-87
2022/04/14 10:03:11;;;;;;;8.60;5.28;;;;;;;19.25;27.55;100371.88;6125146;23;20024;-84
2022/04/14 10:05:37;;;;;;;8.43;4.90;;;;;;;19.35;28.20;100366.91;6152141;23;20022;-85
2022/04/14 10:08:07;;;;;;;7.10;4.78;;;;;;;19.73;27.42;100377.19;6125360;23;20056;-85
2022/04/14 10:10:33;;;;;;;7.18;4.55;;;;;;;20.02;27.54;100365.75;6152515;23;20013;-85
2022/04/14 10:13:05;;;;;;;8.73;5.07;;;;;;;19.97;26.28;100369.31;6124751;23;20020;-86
2022/04/14 10:15:36;;;;;;;7.32;4.90;;;;;;;19.63;26.57;100367.31;6126747;23;20017;-85
2022/04/14 10:18:06;;;;;;;6.93;4.93;;;;;;;20.10;27.76;100364.06;6101425;23;20009;-85
2022/04/14 10:20:33;;;;;;;8.13;5.00;;;;;;;20.39;26.10;100363.13;6127058;23;20017;-85
2022/04/14 10:23:02;;;;;;;7.43;4.70;;;;;;;20.36;26.69;100347.22;6152018;23;20024;-85
2022/04/14 10:25:32;;;;;;;6.70;4.75;;;;;;;20.29;25.77;100356.13;6127284;23;20405;-85
2022/04/14 10:27:59;;;;;;;7.20;4.88;;;;;;;20.02;26.08;100354.50;6151158;23;20453;-85
2022/04/14 10:30:27;;;;;;;6.93;4.60;;;;;;;20.35;26.53;100338.00;6125482;23;20023;-86
2022/04/14 10:32:56;;;;;;;6.38;4.82;;;;;;;20.58;26.28;100344.63;6151865;23;20014;-85
2022/04/14 10:35:29;;;;;;;6.95;4.85;;;;;;;20.01;25.55;100348.13;6151891;23;20353;-85
2022/04/14 10:38:15;;;;;;;7.20;4.50;;;;;;;20.31;26.44;100348.72;6151569;23;20018;-84
2022/04/14 10:40:47;;;;;;;6.32;4.30;;;;;;;20.09;25.36;100331.56;6125344;23;20353;-85
2022/04/14 10:43:14;;;;;;;6.10;4.57;;;;;;;20.05;25.94;100331.00;6151344;23;20017;-85
2022/04/14 10:46:06;;;;;;;7.43;4.35;;;;;;;19.92;26.22;100339.03;6151234;23;20402;-85
2022/04/14 10:48:33;;;;;;;6.07;4.47;;;;;;;19.74;25.23;100337.28;6145358;23;20438;-85
2022/04/14 10:51:27;;;;;;;5.97;4.40;;;;;;;20.02;25.50;100326.34;6124741;23;20018;-85
2022/04/14 10:54:06;;;;;;;8.38;4.50;;;;;;;20.12;25.13;100333.38;6151587;23;20021;-85
2022/04/14 10:56:39;;;;;;;5.85;4.10;;;;;;;20.16;25.31;100331.13;6101178;23;20017;-85
2022/04/14 10:59:09;;;;;;;5.35;4.10;;;;;;;20.47;25.55;100331.19;6151738;23;20013;-85
2022/04/14 11:01:47;;;;;;;5.55;3.97;;;;;;;20.69;25.71;100332.66;6151273;23;20437;-85
2022/04/14 11:04:43;;;;;;;6.88;4.60;;;;;;;21.03;24.76;100334.47;6151255;23;20445;-86
2022/04/14 11:07:13;;;;;;;5.43;4.10;;;;;;;20.63;24.60;100326.97;6125145;23;20018;-88
2022/04/14 11:09:41;;;;;;;6.32;4.18;;;;;;;21.06;24.65;100335.53;6151872;23;20020;-85
2022/04/14 11:12:14;;;;;;;6.97;4.15;;;;;;;21.10;24.60;100338.88;6150358;23;20104;-88
2022/04/14 11:14:49;;;;;;;5.28;4.40;;;;;;;21.03;24.38;100333.72;6151180;23;20013;-85
2022/04/14 11:17:31;;;;;;;5.47;4.40;;;;;;;20.94;24.30;100329.03;6151695;23;20017;-86
2022/04/14 11:20:18;;;;;;;5.78;3.90;;;;;;;20.50;24.59;100335.06;6155318;23;20049;-86
2022/04/14 11:23:11;;;;;;;8.20;4.45;;;;;;;21.04;25.42;100336.00;6153333;23;20011;-87
2022/04/14 11:25:49;;;;;;;6.80;4.22;;;;;;;20.90;24.52;100322.84;6104969;23;20021;-87
2022/04/14 11:28:30;;;;;;;5.82;4.03;;;;;;;20.94;24.10;100331.84;6154355;23;20398;-86
2022/04/14 11:30:58;;;;;;;6.07;4.50;;;;;;;21.32;24.35;100331.34;6127472;23;20017;-87